sensor_id;sensor_type;location;lat;lon;timestamp;pressure;altitude;pressure_sealevel;temperature;humidity
51123;BME280;37162;41.724;13.346;2023-12-20T00:01:18;96871.53;;;17.73;65.05
51123;BME280;37162;41.724;13.346;2023-12-20T00:03:43;96870.72;;;17.72;64.99
51123;BME280;37162;41.724;13.346;2023-12-20T00:06:09;96867.47;;;17.70;65.13
51123;BME280;37162;41.724;13.346;2023-12-20T00:08:35;96868.03;;;17.72;65.01
51123;BME280;37162;41.724;13.346;2023-12-20T00:11:01;96862.09;;;17.70;65.02
51123;BME280;37162;41.724;13.346;2023-12-20T00:13:26;96862.66;;;17.72;64.96
51123;BME280;37162;41.724;13.346;2023-12-20T00:15:51;96858.94;;;17.73;65.13
51123;BME280;37162;41.724;13.346;2023-12-20T00:18:17;96856.25;;;17.73;65.41
51123;BME280;37162;41.724;13.346;2023-12-20T00:20:42;96844.09;;;17.71;65.69
51123;BME280;37162;41.724;13.346;2023-12-20T00:23:08;96849.88;;;17.74;65.96
51123;BME280;37162;41.724;13.346;2023-12-20T00:25:34;96857.09;;;17.74;66.05
51123;BME280;37162;41.724;13.346;2023-12-20T00:28:00;96851.91;;;17.72;65.75
51123;BME280;37162;41.724;13.346;2023-12-20T00:30:26;96844.50;;;17.74;65.50
51123;BME280;37162;41.724;13.346;2023-12-20T00:32:51;96841.78;;;17.74;65.13
51123;BME280;37162;41.724;13.346;2023-12-20T00:35:17;96831.06;;;17.74;65.20
51123;BME280;37162;41.724;13.346;2023-12-20T00:37:43;96835.59;;;17.74;65.16
51123;BME280;37162;41.724;13.346;2023-12-20T00:40:09;96827.56;;;17.74;65.25
51123;BME280;37162;41.724;13.346;2023-12-20T00:42:34;96825.69;;;17.74;65.04
51123;BME280;37162;41.724;13.346;2023-12-20T00:45:01;96811.50;;;17.67;65.30
51123;BME280;37162;41.724;13.346;2023-12-20T00:47:27;96815.97;;;17.73;65.25
51123;BME280;37162;41.724;13.346;2023-12-20T00:49:53;96805.44;;;17.72;65.18
51123;BME280;37162;41.724;13.346;2023-12-20T00:52:18;96803.56;;;17.72;65.17
51123;BME280;37162;41.724;13.346;2023-12-20T00:54:44;96790.47;;;17.64;65.20
51123;BME280;37162;41.724;13.346;2023-12-20T00:57:10;96792.81;;;17.72;65.34
51123;BME280;37162;41.724;13.346;2023-12-20T00:59:36;96798.19;;;17.72;65.32
51123;BME280;37162;41.724;13.346;2023-12-20T01:02:01;96787.44;;;17.72;65.55
51123;BME280;37162;41.724;13.346;2023-12-20T01:04:27;96786.41;;;17.73;65.73
51123;BME280;37162;41.724;13.346;2023-12-20T01:06:53;96768.75;;;17.66;65.98
51123;BME280;37162;41.724;13.346;2023-12-20T01:09:18;96781.88;;;17.74;66.19
51123;BME280;37162;41.724;13.346;2023-12-20T01:11:44;96776.50;;;17.74;66.37
51123;BME280;37162;41.724;13.346;2023-12-20T01:14:12;96777.06;;;17.76;66.30
51123;BME280;37162;41.724;13.346;2023-12-20T01:16:37;96765.38;;;17.70;66.21
51123;BME280;37162;41.724;13.346;2023-12-20T01:19:03;96754.03;;;17.68;65.63
51123;BME280;37162;41.724;13.346;2023-12-20T01:21:28;96770.88;;;17.75;65.49
51123;BME280;37162;41.724;13.346;2023-12-20T01:23:54;96758.38;;;17.69;65.40
51123;BME280;37162;41.724;13.346;2023-12-20T01:26:19;96766.56;;;17.74;65.24
51123;BME280;37162;41.724;13.346;2023-12-20T01:28:45;96757.69;;;17.74;65.23
51123;BME280;37162;41.724;13.346;2023-12-20T01:31:10;96759.53;;;17.73;65.24
51123;BME280;37162;41.724;13.346;2023-12-20T01:33:35;96762.22;;;17.73;65.01
51123;BME280;37162;41.724;13.346;2023-12-20T01:36:01;96764.06;;;17.73;64.99
51123;BME280;37162;41.724;13.346;2023-12-20T01:38:26;96755.19;;;17.72;64.96
51123;BME280;37162;41.724;13.346;2023-12-20T01:40:52;96748.66;;;17.68;64.99
51123;BME280;37162;41.724;13.346;2023-12-20T01:43:17;96750.88;;;17.71;64.79
51123;BME280;37162;41.724;13.346;2023-12-20T01:45:43;96750.88;;;17.71;64.92
51123;BME280;37162;41.724;13.346;2023-12-20T01:48:09;96726.72;;;17.59;64.86
51123;BME280;37162;41.724;13.346;2023-12-20T01:50:36;96744.69;;;17.71;64.96
51123;BME280;37162;41.724;13.346;2023-12-20T01:53:03;96733.59;;;17.67;65.33
51123;BME280;37162;41.724;13.346;2023-12-20T01:55:33;96742.00;;;17.71;65.48
51123;BME280;37162;41.724;13.346;2023-12-20T01:58:00;96745.50;;;17.71;65.74
51123;BME280;37162;41.724;13.346;2023-12-20T02:00:27;96698.81;;;17.49;65.66
51123;BME280;37162;41.724;13.346;2023-12-20T02:02:54;96722.75;;;17.62;65.49
51123;BME280;37162;41.724;13.346;2023-12-20T02:05:23;96731.50;;;17.69;65.08
51123;BME280;37162;41.724;13.346;2023-12-20T02:07:49;96727.75;;;17.70;64.91
51123;BME280;37162;41.724;13.346;2023-12-20T02:10:15;96726.94;;;17.70;65.19
51123;BME280;37162;41.724;13.346;2023-12-20T02:12:41;96722.38;;;17.70;64.96
51123;BME280;37162;41.724;13.346;2023-12-20T02:15:07;96717.72;;;17.66;64.83
51123;BME280;37162;41.724;13.346;2023-12-20T02:17:32;96716.66;;;17.67;64.76
51123;BME280;37162;41.724;13.346;2023-12-20T02:19:59;96711.28;;;17.67;64.60
51123;BME280;37162;41.724;13.346;2023-12-20T02:22:24;96712.34;;;17.66;64.44
51123;BME280;37162;41.724;13.346;2023-12-20T02:24:50;96708.84;;;17.65;64.64
51123;BME280;37162;41.724;13.346;2023-12-20T02:27:17;96692.84;;;17.58;64.72
51123;BME280;37162;41.724;13.346;2023-12-20T02:29:43;96705.56;;;17.63;64.59
51123;BME280;37162;41.724;13.346;2023-12-20T02:32:08;96701.50;;;17.60;64.61
51123;BME280;37162;41.724;13.346;2023-12-20T02:34:34;96684.94;;;17.52;64.85
51123;BME280;37162;41.724;13.346;2023-12-20T02:37:00;96694.25;;;17.61;64.80
51123;BME280;37162;41.724;13.346;2023-12-20T02:39:25;96689.09;;;17.59;64.83
51123;BME280;37162;41.724;13.346;2023-12-20T02:41:51;96695.06;;;17.61;64.82
51123;BME280;37162;41.724;13.346;2023-12-20T02:44:16;96689.09;;;17.59;64.93
51123;BME280;37162;41.724;13.346;2023-12-20T02:46:41;96685.38;;;17.60;65.08
51123;BME280;37162;41.724;13.346;2023-12-20T02:49:07;96680.81;;;17.61;65.14
51123;BME280;37162;41.724;13.346;2023-12-20T02:51:32;96672.66;;;17.56;65.27
51123;BME280;37162;41.724;13.346;2023-12-20T02:53:58;96669.88;;;17.51;65.11
51123;BME280;37162;41.724;13.346;2023-12-20T02:56:23;96676.50;;;17.60;64.71
51123;BME280;37162;41.724;13.346;2023-12-20T02:58:49;96660.50;;;17.53;64.49
51123;BME280;37162;41.724;13.346;2023-12-20T03:01:14;96663.06;;;17.60;64.25
51123;BME280;37162;41.724;13.346;2023-12-20T03:03:40;96671.13;;;17.60;64.44
51123;BME280;37162;41.724;13.346;2023-12-20T03:06:05;96671.13;;;17.60;64.31
51123;BME280;37162;41.724;13.346;2023-12-20T03:08:31;96649.91;;;17.47;64.22
51123;BME280;37162;41.724;13.346;2023-12-20T03:10:56;96661.09;;;17.55;64.28
51123;BME280;37162;41.724;13.346;2023-12-20T03:13:21;96667.84;;;17.58;64.13
51123;BME280;37162;41.724;13.346;2023-12-20T03:15:47;96663.28;;;17.58;64.39
51123;BME280;37162;41.724;13.346;2023-12-20T03:18:12;96659.78;;;17.58;64.27
51123;BME280;37162;41.724;13.346;2023-12-20T03:20:38;96657.91;;;17.58;64.52
51123;BME280;37162;41.724;13.346;2023-12-20T03:23:03;96641.00;;;17.58;64.25
51123;BME280;37162;41.724;13.346;2023-12-20T03:25:29;96638.56;;;17.56;64.36
51123;BME280;37162;41.724;13.346;2023-12-20T03:27:55;96641.00;;;17.58;64.18
51123;BME280;37162;41.724;13.346;2023-12-20T03:30:20;96640.19;;;17.57;64.28
51123;BME280;37162;41.724;13.346;2023-12-20T03:32:46;96638.31;;;17.58;64.37
51123;BME280;37162;41.724;13.346;2023-12-20T03:35:12;96628.38;;;17.58;64.46
51123;BME280;37162;41.724;13.346;2023-12-20T03:37:38;96615.34;;;17.50;64.58
51123;BME280;37162;41.724;13.346;2023-12-20T03:40:04;96631.66;;;17.60;64.85
51123;BME280;37162;41.724;13.346;2023-12-20T03:42:29;96625.47;;;17.60;65.12
51123;BME280;37162;41.724;13.346;2023-12-20T03:44:55;96612.41;;;17.52;64.72
51123;BME280;37162;41.724;13.346;2023-12-20T03:47:20;96610.28;;;17.54;64.57
51123;BME280;37162;41.724;13.346;2023-12-20T03:49:46;96608.19;;;17.56;64.32
51123;BME280;37162;41.724;13.346;2023-12-20T03:52:11;96611.44;;;17.58;64.24
51123;BME280;37162;41.724;13.346;2023-12-20T03:54:37;96605.81;;;17.59;64.16
51123;BME280;37162;41.724;13.346;2023-12-20T03:57:03;96595.47;;;17.51;64.36
51123;BME280;37162;41.724;13.346;2023-12-20T03:59:29;96610.16;;;17.60;64.25
51123;BME280;37162;41.724;13.346;2023-12-20T04:01:55;96607.69;;;17.59;64.20
51123;BME280;37162;41.724;13.346;2023-12-20T04:04:20;96605.00;;;17.59;64.13
51123;BME280;37162;41.724;13.346;2023-12-20T04:06:46;96605.81;;;17.59;64.20
51123;BME280;37162;41.724;13.346;2023-12-20T04:09:11;96591.97;;;17.51;64.17
51123;BME280;37162;41.724;13.346;2023-12-20T04:11:37;96600.44;;;17.59;64.12
51123;BME280;37162;41.724;13.346;2023-12-20T04:14:03;96597.75;;;17.59;64.30
51123;BME280;37162;41.724;13.346;2023-12-20T04:16:30;96598.81;;;17.58;64.25
51123;BME280;37162;41.724;13.346;2023-12-20T04:18:55;96598.81;;;17.58;64.16
51123;BME280;37162;41.724;13.346;2023-12-20T04:21:21;96581.00;;;17.52;64.30
51123;BME280;37162;41.724;13.346;2023-12-20T04:23:46;96589.94;;;17.58;64.35
51123;BME280;37162;41.724;13.346;2023-12-20T04:26:12;96593.22;;;17.60;64.64
51123;BME280;37162;41.724;13.346;2023-12-20T04:28:37;96596.72;;;17.60;65.04
51123;BME280;37162;41.724;13.346;2023-12-20T04:31:03;96583.28;;;17.60;65.07
51123;BME280;37162;41.724;13.346;2023-12-20T04:33:28;96589.47;;;17.61;65.34
51123;BME280;37162;41.724;13.346;2023-12-20T04:35:54;96584.09;;;17.61;65.43
51123;BME280;37162;41.724;13.346;2023-12-20T04:38:19;96575.06;;;17.50;65.13
51123;BME280;37162;41.724;13.346;2023-12-20T04:40:45;96588.66;;;17.60;64.82
51123;BME280;37162;41.724;13.346;2023-12-20T04:43:10;96581.41;;;17.61;64.52
51123;BME280;37162;41.724;13.346;2023-12-20T04:45:36;96559.97;;;17.49;64.37
51123;BME280;37162;41.724;13.346;2023-12-20T04:48:02;96577.91;;;17.60;64.13
51123;BME280;37162;41.724;13.346;2023-12-20T04:50:27;96582.22;;;17.61;64.14
51123;BME280;37162;41.724;13.346;2023-12-20T04:52:53;96571.88;;;17.53;64.03
51123;BME280;37162;41.724;13.346;2023-12-20T04:55:19;96575.47;;;17.59;64.00
51123;BME280;37162;41.724;13.346;2023-12-20T04:57:44;96571.16;;;17.58;63.97
51123;BME280;37162;41.724;13.346;2023-12-20T05:00:10;96564.41;;;17.55;63.99
51123;BME280;37162;41.724;13.346;2023-12-20T05:02:36;96575.47;;;17.59;64.06
51123;BME280;37162;41.724;13.346;2023-12-20T05:05:02;96571.97;;;17.58;63.87
51123;BME280;37162;41.724;13.346;2023-12-20T05:07:27;96570.91;;;17.59;63.91
51123;BME280;37162;41.724;13.346;2023-12-20T05:09:53;96570.09;;;17.59;63.90
51123;BME280;37162;41.724;13.346;2023-12-20T05:12:19;96569.28;;;17.58;63.98
51123;BME280;37162;41.724;13.346;2023-12-20T05:14:44;96569.19;;;17.53;64.04
51123;BME280;37162;41.724;13.346;2023-12-20T05:17:10;96569.28;;;17.58;64.11
51123;BME280;37162;41.724;13.346;2023-12-20T05:19:35;96575.47;;;17.59;64.65
51123;BME280;37162;41.724;13.346;2023-12-20T05:22:03;96572.78;;;17.59;64.65
51123;BME280;37162;41.724;13.346;2023-12-20T05:24:29;96578.41;;;17.57;65.00
51123;BME280;37162;41.724;13.346;2023-12-20T05:26:54;96557.53;;;17.48;65.10
51123;BME280;37162;41.724;13.346;2023-12-20T05:29:20;96546.47;;;17.44;65.10
51123;BME280;37162;41.724;13.346;2023-12-20T05:31:46;96575.47;;;17.59;64.98
51123;BME280;37162;41.724;13.346;2023-12-20T05:34:11;96555.75;;;17.53;64.54
51123;BME280;37162;41.724;13.346;2023-12-20T05:36:37;96569.28;;;17.58;64.19
51123;BME280;37162;41.724;13.346;2023-12-20T05:39:02;96567.41;;;17.59;64.19
51123;BME280;37162;41.724;13.346;2023-12-20T05:41:33;96567.41;;;17.59;64.32
51123;BME280;37162;41.724;13.346;2023-12-20T05:43:58;96576.53;;;17.58;64.39
51123;BME280;37162;41.724;13.346;2023-12-20T05:46:24;96562.44;;;17.51;64.05
51123;BME280;37162;41.724;13.346;2023-12-20T05:48:50;96565.34;;;17.49;63.73
51123;BME280;37162;41.724;13.346;2023-12-20T05:51:17;96569.78;;;17.55;63.60
51123;BME280;37162;41.724;13.346;2023-12-20T05:53:43;96571.88;;;17.53;63.91
51123;BME280;37162;41.724;13.346;2023-12-20T05:56:09;96559.41;;;17.47;63.90
51123;BME280;37162;41.724;13.346;2023-12-20T05:58:35;96561.38;;;17.52;63.70
51123;BME280;37162;41.724;13.346;2023-12-20T06:01:01;96558.94;;;17.50;64.10
51123;BME280;37162;41.724;13.346;2023-12-20T06:03:28;96555.41;;;17.50;64.11
51123;BME280;37162;41.724;13.346;2023-12-20T06:05:54;96560.22;;;17.48;64.22
51123;BME280;37162;41.724;13.346;2023-12-20T06:08:19;96548.81;;;17.41;64.12
51123;BME280;37162;41.724;13.346;2023-12-20T06:10:45;96559.66;;;17.46;64.28
51123;BME280;37162;41.724;13.346;2023-12-20T06:13:10;96556.97;;;17.46;64.07
51123;BME280;37162;41.724;13.346;2023-12-20T06:15:38;96527.22;;;17.35;64.16
51123;BME280;37162;41.724;13.346;2023-12-20T06:18:03;96529.09;;;17.35;64.20
51123;BME280;37162;41.724;13.346;2023-12-20T06:20:29;96541.91;;;17.45;64.05
51123;BME280;37162;41.724;13.346;2023-12-20T06:22:54;96534.91;;;17.44;63.96
51123;BME280;37162;41.724;13.346;2023-12-20T06:25:20;96526.19;;;17.36;63.82
51123;BME280;37162;41.724;13.346;2023-12-20T06:27:45;96525.34;;;17.36;63.96
51123;BME280;37162;41.724;13.346;2023-12-20T06:30:11;96530.59;;;17.43;63.81
51123;BME280;37162;41.724;13.346;2023-12-20T06:32:36;96535.97;;;17.43;63.94
51123;BME280;37162;41.724;13.346;2023-12-20T06:35:04;96532.47;;;17.42;63.84
51123;BME280;37162;41.724;13.346;2023-12-20T06:37:30;96530.84;;;17.41;64.06
51123;BME280;37162;41.724;13.346;2023-12-20T06:39:55;96512.34;;;17.28;64.18
51123;BME280;37162;41.724;13.346;2023-12-20T06:42:22;96529.19;;;17.40;64.34
51123;BME280;37162;41.724;13.346;2023-12-20T06:44:47;96526.50;;;17.40;64.35
51123;BME280;37162;41.724;13.346;2023-12-20T06:47:13;96510.56;;;17.33;64.39
51123;BME280;37162;41.724;13.346;2023-12-20T06:49:39;96528.16;;;17.41;64.24
51123;BME280;37162;41.724;13.346;2023-12-20T06:52:05;96518.13;;;17.36;64.30
51123;BME280;37162;41.724;13.346;2023-12-20T06:54:31;96521.94;;;17.41;64.28
51123;BME280;37162;41.724;13.346;2023-12-20T06:56:56;96509.84;;;17.38;64.38
51123;BME280;37162;41.724;13.346;2023-12-20T06:59:22;96514.72;;;17.41;64.18
51123;BME280;37162;41.724;13.346;2023-12-20T07:01:48;96523.34;;;17.43;64.19
51123;BME280;37162;41.724;13.346;2023-12-20T07:04:14;96497.47;;;17.37;64.02
51123;BME280;37162;41.724;13.346;2023-12-20T07:06:39;96510.47;;;17.45;64.06
51123;BME280;37162;41.724;13.346;2023-12-20T07:09:05;96511.88;;;17.48;63.97
51123;BME280;37162;41.724;13.346;2023-12-20T07:11:30;96515.13;;;17.50;64.39
51123;BME280;37162;41.724;13.346;2023-12-20T07:13:56;96497.31;;;17.44;64.05
51123;BME280;37162;41.724;13.346;2023-12-20T07:16:21;96499.59;;;17.52;64.30
51123;BME280;37162;41.724;13.346;2023-12-20T07:18:47;96496.56;;;17.48;64.02
51123;BME280;37162;41.724;13.346;2023-12-20T07:21:13;96503.09;;;17.52;64.10
51123;BME280;37162;41.724;13.346;2023-12-20T07:23:38;96501.22;;;17.53;63.84
51123;BME280;37162;41.724;13.346;2023-12-20T07:26:04;96500.88;;;17.49;63.87
51123;BME280;37162;41.724;13.346;2023-12-20T07:28:29;96510.09;;;17.53;63.73
51123;BME280;37162;41.724;13.346;2023-12-20T07:30:55;96513.38;;;17.55;63.76
51123;BME280;37162;41.724;13.346;2023-12-20T07:33:20;96496.81;;;17.47;63.64
51123;BME280;37162;41.724;13.346;2023-12-20T07:35:47;96497.16;;;17.50;63.54
51123;BME280;37162;41.724;13.346;2023-12-20T07:38:12;96507.28;;;17.60;63.63
51123;BME280;37162;41.724;13.346;2023-12-20T07:40:38;96501.63;;;17.61;63.49
51123;BME280;37162;41.724;13.346;2023-12-20T07:43:04;96501.38;;;17.63;63.51
51123;BME280;37162;41.724;13.346;2023-12-20T07:45:29;96487.53;;;17.54;63.32
51123;BME280;37162;41.724;13.346;2023-12-20T07:47:55;96503.00;;;17.64;63.33
51123;BME280;37162;41.724;13.346;2023-12-20T07:50:20;96496.09;;;17.68;63.56
51123;BME280;37162;41.724;13.346;2023-12-20T07:52:46;96494.22;;;17.69;62.67
51123;BME280;37162;41.724;13.346;2023-12-20T07:55:11;96492.94;;;17.71;61.63
51123;BME280;37162;41.724;13.346;2023-12-20T07:57:37;96497.06;;;17.74;60.50
51123;BME280;37162;41.724;13.346;2023-12-20T17:15:37;96182.28;;;17.43;68.08
51123;BME280;37162;41.724;13.346;2023-12-20T17:18:03;96175.31;;;17.42;68.13
51123;BME280;37162;41.724;13.346;2023-12-20T17:20:31;96186.84;;;17.43;68.31
51123;BME280;37162;41.724;13.346;2023-12-20T17:22:56;96186.03;;;17.42;68.27
51123;BME280;37162;41.724;13.346;2023-12-20T17:25:24;96188.47;;;17.44;68.01
51123;BME280;37162;41.724;13.346;2023-12-20T17:27:49;96183.91;;;17.44;68.14
51123;BME280;37162;41.724;13.346;2023-12-20T17:30:15;96182.84;;;17.45;68.07
51123;BME280;37162;41.724;13.346;2023-12-20T17:32:41;96172.69;;;17.47;68.15
51123;BME280;37162;41.724;13.346;2023-12-20T17:35:14;96173.50;;;17.48;67.89
51123;BME280;37162;41.724;13.346;2023-12-20T17:37:40;96161.06;;;17.42;68.03
51123;BME280;37162;41.724;13.346;2023-12-20T17:40:06;96169.50;;;17.50;67.97
51123;BME280;37162;41.724;13.346;2023-12-20T17:42:31;96177.31;;;17.52;67.88
51123;BME280;37162;41.724;13.346;2023-12-20T17:44:57;96173.81;;;17.51;67.99
51123;BME280;37162;41.724;13.346;2023-12-20T17:47:22;96178.38;;;17.51;67.70
51123;BME280;37162;41.724;13.346;2023-12-20T17:49:48;96183.00;;;17.55;67.84
51123;BME280;37162;41.724;13.346;2023-12-20T17:52:13;96190.78;;;17.57;67.80
51123;BME280;37162;41.724;13.346;2023-12-20T17:54:39;96199.41;;;17.59;67.85
51123;BME280;37162;41.724;13.346;2023-12-20T17:57:04;96188.38;;;17.55;68.22
51123;BME280;37162;41.724;13.346;2023-12-20T17:59:30;96187.03;;;17.58;68.67
51123;BME280;37162;41.724;13.346;2023-12-20T18:01:55;96192.47;;;17.63;68.33
51123;BME280;37162;41.724;13.346;2023-12-20T18:04:21;96194.66;;;17.66;68.51
51123;BME280;37162;41.724;13.346;2023-12-20T18:06:48;96179.56;;;17.60;68.55
51123;BME280;37162;41.724;13.346;2023-12-20T18:09:14;96181.16;;;17.61;68.08
51123;BME280;37162;41.724;13.346;2023-12-20T18:11:39;96189.34;;;17.71;68.06
51123;BME280;37162;41.724;13.346;2023-12-20T18:14:05;96190.16;;;17.72;67.72
51123;BME280;37162;41.724;13.346;2023-12-20T18:16:30;96188.28;;;17.72;67.57
51123;BME280;37162;41.724;13.346;2023-12-20T18:18:56;96194.44;;;17.73;67.45
51123;BME280;37162;41.724;13.346;2023-12-20T18:21:22;96196.94;;;17.74;67.56
51123;BME280;37162;41.724;13.346;2023-12-20T18:23:47;96193.19;;;17.75;67.37
51123;BME280;37162;41.724;13.346;2023-12-20T18:26:13;96197.47;;;17.76;67.35
51123;BME280;37162;41.724;13.346;2023-12-20T18:28:38;96187.81;;;17.75;67.27
51123;BME280;37162;41.724;13.346;2023-12-20T18:31:04;96185.94;;;17.76;67.32
51123;BME280;37162;41.724;13.346;2023-12-20T18:33:30;96188.34;;;17.77;67.32
51123;BME280;37162;41.724;13.346;2023-12-20T18:36:02;96188.63;;;17.76;67.25
51123;BME280;37162;41.724;13.346;2023-12-20T18:38:29;96183.25;;;17.76;67.24
51123;BME280;37162;41.724;13.346;2023-12-20T18:40:58;96197.22;;;17.78;67.22
51123;BME280;37162;41.724;13.346;2023-12-20T18:43:23;96203.41;;;17.78;67.26
51123;BME280;37162;41.724;13.346;2023-12-20T18:45:51;96204.25;;;17.79;67.24
51123;BME280;37162;41.724;13.346;2023-12-20T18:48:17;96214.16;;;17.78;67.18
51123;BME280;37162;41.724;13.346;2023-12-20T18:50:43;96209.34;;;17.80;67.49
51123;BME280;37162;41.724;13.346;2023-12-20T18:53:08;96214.72;;;17.80;67.73
51123;BME280;37162;41.724;13.346;2023-12-20T18:55:34;96214.47;;;17.82;67.97
51123;BME280;37162;41.724;13.346;2023-12-20T18:58:00;96212.84;;;17.81;68.17
51123;BME280;37162;41.724;13.346;2023-12-20T19:00:26;96215.84;;;17.84;68.32
51123;BME280;37162;41.724;13.346;2023-12-20T19:02:52;96212.91;;;17.86;68.29
51123;BME280;37162;41.724;13.346;2023-12-20T19:05:19;96197.81;;;17.80;68.01
51123;BME280;37162;41.724;13.346;2023-12-20T19:07:45;96194.91;;;17.86;67.75
51123;BME280;37162;41.724;13.346;2023-12-20T19:10:11;96202.97;;;17.86;67.51
51123;BME280;37162;41.724;13.346;2023-12-20T19:12:36;96201.09;;;17.87;67.40
51123;BME280;37162;41.724;13.346;2023-12-20T19:15:02;96179.22;;;17.78;67.26
51123;BME280;37162;41.724;13.346;2023-12-20T19:17:28;96197.03;;;17.84;67.13
51123;BME280;37162;41.724;13.346;2023-12-20T19:19:53;96189.53;;;17.86;67.15
51123;BME280;37162;41.724;13.346;2023-12-20T19:22:19;96192.22;;;17.86;67.05
51123;BME280;37162;41.724;13.346;2023-12-20T19:24:44;96188.72;;;17.86;67.03
51123;BME280;37162;41.724;13.346;2023-12-20T19:27:10;96197.59;;;17.86;67.08
51123;BME280;37162;41.724;13.346;2023-12-20T19:29:36;96187.91;;;17.85;67.07
51123;BME280;37162;41.724;13.346;2023-12-20T19:32:01;96195.97;;;17.85;67.25
51123;BME280;37162;41.724;13.346;2023-12-20T19:34:26;96192.47;;;17.85;67.12
51123;BME280;37162;41.724;13.346;2023-12-20T19:36:52;96192.44;;;17.80;67.24
51123;BME280;37162;41.724;13.346;2023-12-20T19:39:17;96203.22;;;17.85;67.08
51123;BME280;37162;41.724;13.346;2023-12-20T19:41:44;96191.66;;;17.84;66.94
51123;BME280;37162;41.724;13.346;2023-12-20T19:44:10;96195.16;;;17.85;67.06
51123;BME280;37162;41.724;13.346;2023-12-20T19:46:35;96189.78;;;17.85;67.19
51123;BME280;37162;41.724;13.346;2023-12-20T19:49:01;96181.72;;;17.85;67.53
51123;BME280;37162;41.724;13.346;2023-12-20T19:51:28;96193.28;;;17.85;67.92
51123;BME280;37162;41.724;13.346;2023-12-20T19:53:54;96193.84;;;17.87;68.13
51123;BME280;37162;41.724;13.346;2023-12-20T19:56:19;96196.78;;;17.86;68.08
51123;BME280;37162;41.724;13.346;2023-12-20T19:58:45;96187.66;;;17.87;68.00
51123;BME280;37162;41.724;13.346;2023-12-20T20:01:11;96188.72;;;17.86;67.76
51123;BME280;37162;41.724;13.346;2023-12-20T20:03:36;96190.06;;;17.83;67.29
51123;BME280;37162;41.724;13.346;2023-12-20T20:06:02;96202.97;;;17.86;67.17
51123;BME280;37162;41.724;13.346;2023-12-20T20:08:27;96202.97;;;17.86;67.20
51123;BME280;37162;41.724;13.346;2023-12-20T20:10:52;96197.53;;;17.81;67.23
51123;BME280;37162;41.724;13.346;2023-12-20T20:13:18;96204.03;;;17.85;67.33
51123;BME280;37162;41.724;13.346;2023-12-20T20:15:43;96197.84;;;17.85;67.27
51123;BME280;37162;41.724;13.346;2023-12-20T20:18:09;96202.41;;;17.84;67.16
51123;BME280;37162;41.724;13.346;2023-12-20T20:20:35;96203.50;;;17.83;67.16
51123;BME280;37162;41.724;13.346;2023-12-20T20:23:01;96202.41;;;17.84;67.20
51123;BME280;37162;41.724;13.346;2023-12-20T20:25:26;96186.19;;;17.74;67.28
51123;BME280;37162;41.724;13.346;2023-12-20T20:27:52;96200.81;;;17.83;67.11
51123;BME280;37162;41.724;13.346;2023-12-20T20:30:18;96188.66;;;17.81;67.19
51123;BME280;37162;41.724;13.346;2023-12-20T20:32:43;96194.03;;;17.81;67.06
51123;BME280;37162;41.724;13.346;2023-12-20T20:35:10;96199.41;;;17.81;67.00
51123;BME280;37162;41.724;13.346;2023-12-20T20:37:35;96200.22;;;17.81;67.10
51123;BME280;37162;41.724;13.346;2023-12-20T20:40:05;96192.59;;;17.73;67.45
51123;BME280;37162;41.724;13.346;2023-12-20T20:42:30;96201.03;;;17.82;67.66
51123;BME280;37162;41.724;13.346;2023-12-20T20:44:56;96202.91;;;17.81;67.78
51123;BME280;37162;41.724;13.346;2023-12-20T20:47:21;96201.03;;;17.82;67.65
51123;BME280;37162;41.724;13.346;2023-12-20T20:49:47;96204.78;;;17.81;67.99
51123;BME280;37162;41.724;13.346;2023-12-20T20:52:12;96211.56;;;17.83;67.70
51123;BME280;37162;41.724;13.346;2023-12-20T20:54:38;96210.72;;;17.83;67.35
51123;BME280;37162;41.724;13.346;2023-12-20T20:57:03;96209.91;;;17.82;67.19
51123;BME280;37162;41.724;13.346;2023-12-20T20:59:29;96211.56;;;17.83;67.21
51123;BME280;37162;41.724;13.346;2023-12-20T21:01:54;96205.59;;;17.81;67.08
51123;BME280;37162;41.724;13.346;2023-12-20T21:04:20;96213.66;;;17.81;67.00
51123;BME280;37162;41.724;13.346;2023-12-20T21:06:46;96214.72;;;17.80;66.94
51123;BME280;37162;41.724;13.346;2023-12-20T21:09:12;96214.72;;;17.80;67.26
51123;BME280;37162;41.724;13.346;2023-12-20T21:11:38;96212.03;;;17.80;67.21
51123;BME280;37162;41.724;13.346;2023-12-20T21:14:03;96213.13;;;17.79;67.12
51123;BME280;37162;41.724;13.346;2023-12-20T21:16:29;96201.97;;;17.71;67.27
51123;BME280;37162;41.724;13.346;2023-12-20T21:18:54;96219.53;;;17.78;67.20
51123;BME280;37162;41.724;13.346;2023-12-20T21:21:19;96214.16;;;17.78;67.29
51123;BME280;37162;41.724;13.346;2023-12-20T21:23:45;96216.84;;;17.78;67.21
51123;BME280;37162;41.724;13.346;2023-12-20T21:26:10;96215.22;;;17.77;67.13
51123;BME280;37162;41.724;13.346;2023-12-20T21:28:36;96207.06;;;17.72;66.94
51123;BME280;37162;41.724;13.346;2023-12-20T21:31:02;96214.16;;;17.78;67.03
51123;BME280;37162;41.724;13.346;2023-12-20T21:33:28;96208.78;;;17.78;67.20
51123;BME280;37162;41.724;13.346;2023-12-20T21:35:53;96205.06;;;17.79;67.54
51123;BME280;37162;41.724;13.346;2023-12-20T21:38:19;96205.84;;;17.80;68.19
51123;BME280;37162;41.724;13.346;2023-12-20T21:40:44;96210.16;;;17.81;68.17
51123;BME280;37162;41.724;13.346;2023-12-20T21:43:10;96213.41;;;17.83;68.33
51123;BME280;37162;41.724;13.346;2023-12-20T21:45:35;96205.34;;;17.83;68.13
51123;BME280;37162;41.724;13.346;2023-12-20T21:48:03;96210.72;;;17.83;67.63
51123;BME280;37162;41.724;13.346;2023-12-20T21:50:28;96195.28;;;17.73;67.47
51123;BME280;37162;41.724;13.346;2023-12-20T21:52:54;96196.13;;;17.74;67.52
51123;BME280;37162;41.724;13.346;2023-12-20T21:55:19;96213.16;;;17.84;67.48
51123;BME280;37162;41.724;13.346;2023-12-20T21:57:45;96201.28;;;17.80;67.47